ENY5984 KTRI-KCLT
Flight info
| Callsign | ENY5984 |
|---|---|
| Flight time | 0h 36m |
| Altitude | 17000 |
| Route | WILUM PARQR4 |
| Aircraft | E170/M-SDE3GILORVW/S |
Departure
| Time | 2026-05-08 01:03 |
|---|---|
| Airport | Tri-Cities Regional TN/VA Airport (KTRI) |
Arrival
| Time | 2026-05-08 01:39 |
|---|---|
| Airport | Charlotte Douglas International Airport (KCLT) |
| Time | Latitude | Longitude | Altitude | Speed | Heading |
|---|---|---|---|---|---|
| 2026-05-08 00:48 | 36.48067 | -82.40619 | 1515 ft | 0 kts | 327° |
| 2026-05-08 00:53 | 36.48053 | -82.40608 | 1512 ft | 2 kts | 328° |
| 2026-05-08 00:54 | 36.48039 | -82.40597 | 1515 ft | 2 kts | 330° |
| 2026-05-08 00:54 | 36.48023 | -82.40595 | 1513 ft | 2 kts | 17° |
| 2026-05-08 00:54 | 36.48021 | -82.40596 | 1514 ft | 0 kts | 19° |
| 2026-05-08 00:57 | 36.48022 | -82.40595 | 1513 ft | 1 kts | 26° |
| 2026-05-08 00:57 | 36.48032 | -82.40577 | 1515 ft | 6 kts | 59° |
| 2026-05-08 00:58 | 36.48070 | -82.40515 | 1515 ft | 11 kts | 44° |
| 2026-05-08 00:58 | 36.48134 | -82.40442 | 1505 ft | 14 kts | 42° |
| 2026-05-08 00:58 | 36.48205 | -82.40362 | 1513 ft | 9 kts | 45° |
| 2026-05-08 00:58 | 36.48228 | -82.40287 | 1515 ft | 10 kts | 82° |
| 2026-05-08 00:59 | 36.48230 | -82.40214 | 1515 ft | 5 kts | 104° |
| 2026-05-08 00:59 | 36.48213 | -82.40179 | 1515 ft | 0 kts | 129° |
| 2026-05-08 01:01 | 36.48213 | -82.40178 | 1515 ft | 1 kts | 130° |
| 2026-05-08 01:02 | 36.48190 | -82.40146 | 1514 ft | 9 kts | 132° |
| 2026-05-08 01:02 | 36.48118 | -82.40115 | 1515 ft | 15 kts | 211° |
| 2026-05-08 01:02 | 36.47873 | -82.40390 | 1512 ft | 92 kts | 223° |
| 2026-05-08 01:02 | 36.47200 | -82.41153 | 1618 ft | 160 kts | 223° |
| 2026-05-08 01:03 | 36.46342 | -82.42120 | 2571 ft | 176 kts | 222° |
| 2026-05-08 01:03 | 36.45346 | -82.43214 | 3399 ft | 202 kts | 224° |
| 2026-05-08 01:03 | 36.44281 | -82.44340 | 4284 ft | 207 kts | 224° |
| 2026-05-08 01:03 | 36.43117 | -82.45573 | 4635 ft | 231 kts | 224° |
| 2026-05-08 01:04 | 36.41879 | -82.46917 | 5267 ft | 245 kts | 225° |
| 2026-05-08 01:04 | 36.40558 | -82.48374 | 5812 ft | 260 kts | 225° |
| 2026-05-08 01:04 | 36.39177 | -82.49910 | 6411 ft | 271 kts | 225° |
| 2026-05-08 01:04 | 36.37765 | -82.51474 | 7164 ft | 273 kts | 225° |
| 2026-05-08 01:05 | 36.36341 | -82.53032 | 7942 ft | 273 kts | 225° |
| 2026-05-08 01:05 | 36.34903 | -82.54578 | 8691 ft | 274 kts | 225° |
| 2026-05-08 01:05 | 36.33445 | -82.56125 | 9490 ft | 275 kts | 225° |
| 2026-05-08 01:05 | 36.31980 | -82.57662 | 10205 ft | 280 kts | 225° |
| 2026-05-08 01:06 | 36.30305 | -82.59041 | 10525 ft | 304 kts | 207° |
| 2026-05-08 01:06 | 36.28140 | -82.59394 | 11079 ft | 326 kts | 180° |
| 2026-05-08 01:06 | 36.25943 | -82.58487 | 11747 ft | 345 kts | 154° |
| 2026-05-08 01:06 | 36.24136 | -82.56451 | 12427 ft | 361 kts | 129° |
| 2026-05-08 01:07 | 36.23059 | -82.53606 | 13119 ft | 373 kts | 104° |
| 2026-05-08 01:07 | 36.22901 | -82.50416 | 13819 ft | 378 kts | 79° |
| 2026-05-08 01:07 | 36.23668 | -82.47275 | 14492 ft | 377 kts | 62° |
| 2026-05-08 01:07 | 36.24761 | -82.44355 | 15134 ft | 383 kts | 59° |
| 2026-05-08 01:08 | 36.25929 | -82.41360 | 15817 ft | 389 kts | 59° |
| 2026-05-08 01:08 | 36.27109 | -82.38300 | 16467 ft | 396 kts | 60° |
| 2026-05-08 01:08 | 36.28306 | -82.35186 | 16818 ft | 399 kts | 57° |
| 2026-05-08 01:08 | 36.29860 | -82.32386 | 16914 ft | 396 kts | 48° |
| 2026-05-08 01:09 | 36.31357 | -82.29474 | 16975 ft | 401 kts | 54° |
| 2026-05-08 01:09 | 36.32754 | -82.26482 | 16998 ft | 402 kts | 55° |
| 2026-05-08 01:09 | 36.34126 | -82.23457 | 17006 ft | 402 kts | 56° |
| 2026-05-08 01:09 | 36.35377 | -82.20353 | 16984 ft | 408 kts | 68° |
| 2026-05-08 01:10 | 36.36151 | -82.16951 | 16994 ft | 409 kts | 73° |
| 2026-05-08 01:10 | 36.36826 | -82.13517 | 16997 ft | 409 kts | 72° |
| 2026-05-08 01:10 | 36.37557 | -82.10103 | 17001 ft | 409 kts | 72° |
| 2026-05-08 01:10 | 36.38288 | -82.06691 | 17000 ft | 410 kts | 72° |
| 2026-05-08 01:11 | 36.39019 | -82.03280 | 16987 ft | 409 kts | 72° |
| 2026-05-08 01:11 | 36.39752 | -81.99857 | 16971 ft | 408 kts | 72° |
| 2026-05-08 01:11 | 36.40476 | -81.96462 | 16965 ft | 408 kts | 72° |
| 2026-05-08 01:11 | 36.41209 | -81.93045 | 16999 ft | 409 kts | 72° |
| 2026-05-08 01:12 | 36.41936 | -81.89629 | 16999 ft | 409 kts | 72° |
| 2026-05-08 01:12 | 36.42663 | -81.86223 | 16990 ft | 408 kts | 72° |
| 2026-05-08 01:12 | 36.43350 | -81.82849 | 16961 ft | 409 kts | 77° |
| 2026-05-08 01:12 | 36.43412 | -81.79327 | 16942 ft | 409 kts | 100° |
| 2026-05-08 01:13 | 36.42547 | -81.76004 | 16971 ft | 402 kts | 122° |
| 2026-05-08 01:13 | 36.40887 | -81.73297 | 16990 ft | 388 kts | 144° |
| 2026-05-08 01:13 | 36.38676 | -81.71547 | 16970 ft | 368 kts | 167° |
| 2026-05-08 01:13 | 36.36252 | -81.70967 | 16976 ft | 345 kts | 191° |
| 2026-05-08 01:14 | 36.33859 | -81.71034 | 17017 ft | 353 kts | 183° |
| 2026-05-08 01:14 | 36.31423 | -81.70314 | 17001 ft | 363 kts | 174° |
| 2026-05-08 01:14 | 36.28976 | -81.69504 | 16917 ft | 363 kts | 173° |
| 2026-05-08 01:14 | 36.26557 | -81.68571 | 16912 ft | 366 kts | 170° |
| 2026-05-08 01:15 | 36.24159 | -81.67506 | 16942 ft | 367 kts | 167° |
| 2026-05-08 01:15 | 36.21835 | -81.66114 | 16938 ft | 374 kts | 161° |
| 2026-05-08 01:15 | 36.19527 | -81.64602 | 16952 ft | 375 kts | 160° |
| 2026-05-08 01:15 | 36.17233 | -81.63061 | 16950 ft | 377 kts | 159° |
| 2026-05-08 01:16 | 36.14934 | -81.61509 | 16951 ft | 375 kts | 159° |
| 2026-05-08 01:16 | 36.12638 | -81.59966 | 16938 ft | 376 kts | 160° |
| 2026-05-08 01:16 | 36.10337 | -81.58419 | 16941 ft | 377 kts | 160° |
| 2026-05-08 01:16 | 36.08035 | -81.56871 | 16955 ft | 376 kts | 160° |
| 2026-05-08 01:17 | 36.05761 | -81.55345 | 16979 ft | 376 kts | 160° |
| 2026-05-08 01:17 | 36.03452 | -81.53795 | 16968 ft | 377 kts | 160° |
| 2026-05-08 01:17 | 36.01141 | -81.52246 | 16965 ft | 376 kts | 160° |
| 2026-05-08 01:17 | 35.98833 | -81.50701 | 16991 ft | 377 kts | 160° |
| 2026-05-08 01:18 | 35.96520 | -81.49155 | 16998 ft | 378 kts | 160° |
| 2026-05-08 01:18 | 35.94212 | -81.47610 | 16991 ft | 378 kts | 160° |
| 2026-05-08 01:18 | 35.91900 | -81.46065 | 16985 ft | 379 kts | 160° |
| 2026-05-08 01:18 | 35.89587 | -81.44518 | 16971 ft | 377 kts | 160° |
| 2026-05-08 01:19 | 35.87279 | -81.42978 | 16949 ft | 377 kts | 160° |
| 2026-05-08 01:19 | 35.84994 | -81.41454 | 16968 ft | 378 kts | 160° |
| 2026-05-08 01:19 | 35.82681 | -81.39913 | 16966 ft | 378 kts | 160° |
| 2026-05-08 01:19 | 35.80356 | -81.38412 | 16957 ft | 377 kts | 160° |
| 2026-05-08 01:20 | 35.78061 | -81.36823 | 16966 ft | 379 kts | 158° |
| 2026-05-08 01:20 | 35.75823 | -81.35231 | 16971 ft | 380 kts | 158° |
| 2026-05-08 01:20 | 35.73530 | -81.33592 | 16961 ft | 380 kts | 158° |
| 2026-05-08 01:20 | 35.71240 | -81.31955 | 16959 ft | 381 kts | 158° |
| 2026-05-08 01:21 | 35.68944 | -81.30314 | 16965 ft | 381 kts | 158° |
| 2026-05-08 01:21 | 35.66647 | -81.28676 | 16959 ft | 381 kts | 158° |
| 2026-05-08 01:21 | 35.64352 | -81.27040 | 16953 ft | 381 kts | 158° |
| 2026-05-08 01:21 | 35.62060 | -81.25406 | 16940 ft | 381 kts | 158° |
| 2026-05-08 01:22 | 35.59761 | -81.23788 | 16950 ft | 380 kts | 159° |
| 2026-05-08 01:22 | 35.57456 | -81.22165 | 16969 ft | 384 kts | 156° |
| 2026-05-08 01:22 | 35.55268 | -81.20452 | 16967 ft | 384 kts | 155° |
| 2026-05-08 01:22 | 35.53025 | -81.18679 | 16959 ft | 384 kts | 155° |
| 2026-05-08 01:23 | 35.50775 | -81.16894 | 16961 ft | 385 kts | 155° |
| 2026-05-08 01:23 | 35.48516 | -81.15104 | 16890 ft | 386 kts | 155° |
| 2026-05-08 01:23 | 35.46259 | -81.13317 | 16621 ft | 384 kts | 155° |
| 2026-05-08 01:23 | 35.44015 | -81.11547 | 16218 ft | 391 kts | 155° |
| 2026-05-08 01:24 | 35.41641 | -81.10025 | 15767 ft | 379 kts | 167° |
| 2026-05-08 01:24 | 35.39168 | -81.09047 | 15297 ft | 369 kts | 173° |
| 2026-05-08 01:24 | 35.36697 | -81.08334 | 14800 ft | 358 kts | 179° |
| 2026-05-08 01:24 | 35.34329 | -81.08006 | 14302 ft | 331 kts | 184° |
| 2026-05-08 01:25 | 35.32096 | -81.07777 | 13807 ft | 314 kts | 185° |
| 2026-05-08 01:25 | 35.29958 | -81.07586 | 13133 ft | 302 kts | 185° |
| 2026-05-08 01:25 | 35.27892 | -81.07406 | 12418 ft | 293 kts | 185° |
| 2026-05-08 01:25 | 35.25889 | -81.07230 | 11730 ft | 284 kts | 184° |
| 2026-05-08 01:26 | 35.23947 | -81.07058 | 11053 ft | 273 kts | 184° |
| 2026-05-08 01:26 | 35.22082 | -81.06894 | 10393 ft | 263 kts | 184° |
| 2026-05-08 01:26 | 35.20299 | -81.06747 | 9758 ft | 253 kts | 184° |
| 2026-05-08 01:26 | 35.18566 | -81.06579 | 9020 ft | 248 kts | 183° |
| 2026-05-08 01:27 | 35.16863 | -81.06429 | 8339 ft | 243 kts | 184° |
| 2026-05-08 01:27 | 35.15171 | -81.06280 | 7809 ft | 243 kts | 182° |
| 2026-05-08 01:27 | 35.13474 | -81.06111 | 7323 ft | 247 kts | 182° |
| 2026-05-08 01:27 | 35.11765 | -81.05980 | 6839 ft | 246 kts | 181° |
| 2026-05-08 01:28 | 35.10054 | -81.05830 | 6360 ft | 248 kts | 180° |
| 2026-05-08 01:28 | 35.08329 | -81.05696 | 6081 ft | 245 kts | 181° |
| 2026-05-08 01:28 | 35.06662 | -81.05547 | 6009 ft | 240 kts | 179° |
| 2026-05-08 01:28 | 35.04990 | -81.05363 | 5976 ft | 243 kts | 179° |
| 2026-05-08 01:29 | 35.03293 | -81.05179 | 5830 ft | 247 kts | 179° |
| 2026-05-08 01:29 | 35.01585 | -81.05004 | 5499 ft | 247 kts | 179° |
| 2026-05-08 01:29 | 34.99895 | -81.04699 | 5132 ft | 245 kts | 168° |
| 2026-05-08 01:29 | 34.98244 | -81.04550 | 4739 ft | 236 kts | 192° |
| 2026-05-08 01:30 | 34.97163 | -81.04790 | 4495 ft | 238 kts | 195° |
| 2026-05-08 01:30 | 34.95566 | -81.05267 | 4132 ft | 237 kts | 198° |
| 2026-05-08 01:30 | 34.93949 | -81.05580 | 4010 ft | 237 kts | 175° |
| 2026-05-08 01:30 | 34.92420 | -81.04852 | 3976 ft | 239 kts | 139° |
| 2026-05-08 01:31 | 34.91502 | -81.03226 | 3996 ft | 233 kts | 103° |
| 2026-05-08 01:31 | 34.91733 | -81.00756 | 4000 ft | 220 kts | 54° |
| 2026-05-08 01:31 | 34.92315 | -80.99805 | 3984 ft | 199 kts | 46° |
| 2026-05-08 01:31 | 34.93196 | -80.98588 | 3963 ft | 185 kts | 43° |
| 2026-05-08 01:32 | 34.94064 | -80.97455 | 3942 ft | 181 kts | 41° |
| 2026-05-08 01:32 | 34.94941 | -80.96339 | 3932 ft | 184 kts | 41° |
| 2026-05-08 01:32 | 34.95828 | -80.95225 | 3913 ft | 182 kts | 41° |
| 2026-05-08 01:32 | 34.96697 | -80.94125 | 3941 ft | 184 kts | 41° |
| 2026-05-08 01:33 | 34.97590 | -80.92995 | 3942 ft | 185 kts | 42° |
| 2026-05-08 01:33 | 34.98554 | -80.92002 | 3935 ft | 178 kts | 23° |
| 2026-05-08 01:33 | 34.99752 | -80.91706 | 3959 ft | 176 kts | 358° |
| 2026-05-08 01:33 | 35.00969 | -80.91807 | 3942 ft | 175 kts | 355° |
| 2026-05-08 01:34 | 35.02186 | -80.91878 | 3957 ft | 175 kts | 356° |
| 2026-05-08 01:34 | 35.03401 | -80.91969 | 3957 ft | 174 kts | 354° |
| 2026-05-08 01:34 | 35.04608 | -80.92083 | 3737 ft | 169 kts | 355° |
| 2026-05-08 01:34 | 35.05715 | -80.92172 | 3550 ft | 151 kts | 356° |
| 2026-05-08 01:35 | 35.06742 | -80.92262 | 3366 ft | 148 kts | 355° |
| 2026-05-08 01:35 | 35.07759 | -80.92353 | 3191 ft | 147 kts | 357° |
| 2026-05-08 01:35 | 35.08795 | -80.92437 | 2996 ft | 144 kts | 357° |
| 2026-05-08 01:35 | 35.09753 | -80.92520 | 2784 ft | 137 kts | 358° |
| 2026-05-08 01:36 | 35.10694 | -80.92604 | 2599 ft | 136 kts | 358° |
| 2026-05-08 01:36 | 35.11632 | -80.92682 | 2427 ft | 134 kts | 358° |
| 2026-05-08 01:36 | 35.12553 | -80.92764 | 2307 ft | 134 kts | 359° |
| 2026-05-08 01:36 | 35.13426 | -80.92838 | 2126 ft | 120 kts | 359° |
| 2026-05-08 01:37 | 35.14265 | -80.92910 | 1950 ft | 120 kts | 359° |
| 2026-05-08 01:37 | 35.15101 | -80.92982 | 1769 ft | 121 kts | 360° |
| 2026-05-08 01:37 | 35.15946 | -80.93055 | 1616 ft | 122 kts | 359° |
| 2026-05-08 01:37 | 35.16805 | -80.93135 | 1449 ft | 125 kts | 0° |
| 2026-05-08 01:38 | 35.17685 | -80.93201 | 1295 ft | 127 kts | 358° |
| 2026-05-08 01:38 | 35.18565 | -80.93279 | 1133 ft | 128 kts | 359° |
| 2026-05-08 01:38 | 35.19460 | -80.93369 | 905 ft | 129 kts | 358° |
| 2026-05-08 01:38 | 35.20329 | -80.93436 | 739 ft | 116 kts | 358° |
| 2026-05-08 01:39 | 35.21023 | -80.93493 | 732 ft | 80 kts | 356° |
| 2026-05-08 01:39 | 35.21381 | -80.93524 | 732 ft | 37 kts | 354° |
| 2026-05-08 01:39 | 35.21524 | -80.93624 | 731 ft | 21 kts | 315° |
| 2026-05-08 01:39 | 35.21613 | -80.93749 | 730 ft | 15 kts | 309° |
| 2026-05-08 01:40 | 35.21683 | -80.93849 | 730 ft | 17 kts | 313° |
| 2026-05-08 01:40 | 35.21770 | -80.93943 | 730 ft | 11 kts | 336° |
| 2026-05-08 01:40 | 35.21834 | -80.93906 | 730 ft | 11 kts | 35° |
| 2026-05-08 01:40 | 35.21901 | -80.93921 | 730 ft | 10 kts | 7° |
| 2026-05-08 01:41 | 35.21957 | -80.93863 | 729 ft | 12 kts | 46° |
| 2026-05-08 01:41 | 35.22016 | -80.93849 | 729 ft | 6 kts | 294° |
| 2026-05-08 01:41 | 35.22037 | -80.93895 | 729 ft | 2 kts | 298° |
| 2026-05-08 01:41 | 35.22038 | -80.93898 | 729 ft | 0 kts | 298° |